Time;durP1;ratioP1;P1;durP2;ratioP2;P2;SDS_P1;SDS_P2;PMS_P1;PMS_P2;Temp;Humidity;BMP_temperature;BMP_pressure;BME280_temperature;BME280_humidity;BME280_pressure;Samples;Min_cycle;Max_cycle;Signal;HPM_P1;HPM_P2
2022/01/10 00:01:08;;;;;;;11.48;3.05;;;;;;;;;;5055091;28;20051;-72
2022/01/10 00:03:36;;;;;;;14.40;3.75;;;;;;;;;;5054788;28;20052;-73
2022/01/10 00:06:03;;;;;;;13.23;3.10;;;;;;;;;;5054980;28;20437;-73
2022/01/10 00:08:31;;;;;;;15.35;3.20;;;;;;;;;;5055004;28;20017;-73
2022/01/10 00:10:58;;;;;;;17.08;3.03;;;;;;;;;;5054944;28;20382;-74
2022/01/10 00:13:25;;;;;;;15.32;3.15;;;;;;;;;;5054996;28;20045;-73
2022/01/10 00:15:52;;;;;;;13.32;2.80;;;;;;;;;;5053559;28;20025;-73
2022/01/10 00:18:20;;;;;;;12.55;3.33;;;;;;;;;;5054745;28;20033;-72
2022/01/10 00:20:47;;;;;;;16.13;2.92;;;;;;;;;;5054740;28;20029;-73
2022/01/10 00:23:14;;;;;;;9.48;2.45;;;;;;;;;;5053374;28;20033;-72
2022/01/10 00:25:41;;;;;;;18.38;3.50;;;;;;;;;;5054608;28;20096;-72
2022/01/10 00:28:08;;;;;;;19.58;3.67;;;;;;;;;;5054542;28;20426;-72
2022/01/10 00:30:36;;;;;;;16.23;3.53;;;;;;;;;;5054451;28;20025;-72
2022/01/10 00:33:03;;;;;;;17.33;3.17;;;;;;;;;;5054246;28;20048;-72
2022/01/10 00:35:30;;;;;;;14.68;3.30;;;;;;;;;;5054477;28;20032;-72
2022/01/10 00:37:57;;;;;;;14.10;3.00;;;;;;;;;;5052966;28;20017;-73
2022/01/10 00:40:24;;;;;;;13.23;2.83;;;;;;;;;;5052982;28;20031;-73
2022/01/10 00:42:56;;;;;;;15.55;3.38;;;;;;;;;;5054213;28;20025;-73
2022/01/10 00:45:26;;;;;;;13.27;3.30;;;;;;;;;;5052950;28;20110;-73
2022/01/10 00:47:54;;;;;;;12.88;2.90;;;;;;;;;;5054118;28;20028;-72
2022/01/10 00:50:21;;;;;;;13.38;2.92;;;;;;;;;;5053848;28;20032;-71
2022/01/10 00:52:49;;;;;;;17.05;3.72;;;;;;;;;;5053991;28;20067;-72
2022/01/10 00:55:16;;;;;;;14.80;3.15;;;;;;;;;;5053923;28;20082;-72
2022/01/10 00:57:43;;;;;;;12.52;2.42;;;;;;;;;;5053861;28;20032;-71
2022/01/10 01:00:12;;;;;;;14.07;3.38;;;;;;;;;;5053738;28;20025;-71
2022/01/10 01:02:40;;;;;;;14.40;3.55;;;;;;;;;;5053658;28;20025;-72
2022/01/10 01:05:08;;;;;;;10.85;2.60;;;;;;;;;;5053812;28;20053;-73
2022/01/10 01:07:36;;;;;;;13.35;3.03;;;;;;;;;;5053779;28;20028;-72
2022/01/10 01:13:10;;;;;;;14.70;2.95;;;;;;;;;;5053728;28;20112;-71
2022/01/10 01:15:33;;;;;;;15.40;2.72;;;;;;;;;;5053544;28;20124;-71
2022/01/10 01:25:48;;;;;;;16.40;3.25;;;;;;;;;;5053518;28;20036;-71
2022/01/10 01:28:15;;;;;;;11.20;3.03;;;;;;;;;;5053401;28;20025;-70
2022/01/10 01:30:43;;;;;;;13.95;3.03;;;;;;;;;;5052067;28;20547;-71
2022/01/10 01:33:13;;;;;;;11.05;2.50;;;;;;;;;;5053190;28;20389;-72
2022/01/10 01:35:40;;;;;;;14.50;3.17;;;;;;;;;;5053306;28;20025;-71
2022/01/10 01:38:08;;;;;;;11.98;2.72;;;;;;;;;;5053187;28;20017;-71
2022/01/10 01:40:41;;;;;;;13.38;2.95;;;;;;;;;;5051942;28;20413;-71
2022/01/10 01:43:08;;;;;;;13.93;3.50;;;;;;;;;;5053203;28;20021;-70
2022/01/10 01:45:37;;;;;;;10.55;2.67;;;;;;;;;;5053060;28;20542;-71
2022/01/10 01:48:04;;;;;;;11.70;2.50;;;;;;;;;;5053113;28;20028;-71
2022/01/10 01:50:32;;;;;;;13.75;3.05;;;;;;;;;;5051605;28;20025;-72
2022/01/10 01:52:59;;;;;;;18.27;3.13;;;;;;;;;;5051731;28;20032;-71
2022/01/10 01:55:26;;;;;;;11.13;2.33;;;;;;;;;;5051640;28;20102;-71
2022/01/10 01:57:53;;;;;;;13.65;2.95;;;;;;;;;;5052878;28;20017;-71
2022/01/10 02:00:22;;;;;;;14.13;2.88;;;;;;;;;;5051456;28;20463;-71
2022/01/10 02:02:50;;;;;;;15.50;2.97;;;;;;;;;;5052103;28;20025;-71
2022/01/10 02:05:18;;;;;;;17.20;3.38;;;;;;;;;;5051343;28;20075;-71
2022/01/10 02:07:45;;;;;;;13.75;2.80;;;;;;;;;;5051585;28;20029;-70
2022/01/10 02:10:12;;;;;;;11.98;2.50;;;;;;;;;;5052656;28;20017;-71
2022/01/10 02:12:40;;;;;;;13.95;3.17;;;;;;;;;;5053062;28;20025;-71
2022/01/10 02:15:07;;;;;;;15.35;2.97;;;;;;;;;;5052661;28;20387;-70
2022/01/10 02:17:37;;;;;;;10.18;2.35;;;;;;;;;;5052818;28;20041;-71
2022/01/10 02:20:05;;;;;;;12.98;2.13;;;;;;;;;;5052681;28;20033;-71
2022/01/10 02:22:33;;;;;;;12.02;2.08;;;;;;;;;;5052689;28;20025;-70
2022/01/10 02:25:00;;;;;;;11.23;2.53;;;;;;;;;;5052678;28;20370;-71
2022/01/10 02:27:27;;;;;;;12.23;2.65;;;;;;;;;;5052775;28;20104;-71
2022/01/10 02:29:54;;;;;;;11.48;2.28;;;;;;;;;;5052480;28;20385;-71
2022/01/10 02:32:22;;;;;;;13.75;2.63;;;;;;;;;;5052670;28;20032;-71
2022/01/10 02:34:49;;;;;;;15.07;2.92;;;;;;;;;;5052611;28;20125;-71
2022/01/10 02:37:36;;;;;;;12.02;2.85;;;;;;;;;;5052589;28;20114;-71
2022/01/10 02:40:08;;;;;;;9.38;2.30;;;;;;;;;;5052627;28;20047;-72
2022/01/10 02:42:36;;;;;;;13.23;2.80;;;;;;;;;;5052467;28;20358;-71
2022/01/10 02:45:04;;;;;;;10.40;2.45;;;;;;;;;;5052369;28;20377;-71
2022/01/10 02:47:31;;;;;;;11.45;2.22;;;;;;;;;;5051202;28;20029;-72
2022/01/10 02:49:58;;;;;;;12.70;2.25;;;;;;;;;;5051127;28;20110;-71
2022/01/10 02:52:25;;;;;;;13.40;2.40;;;;;;;;;;5051114;28;20032;-71
2022/01/10 02:54:53;;;;;;;11.20;2.67;;;;;;;;;;5052452;28;20389;-72
2022/01/10 02:57:20;;;;;;;15.02;3.10;;;;;;;;;;5052178;28;20590;-72
2022/01/10 02:59:47;;;;;;;9.73;1.90;;;;;;;;;;5052309;28;20021;-72
2022/01/10 03:02:19;;;;;;;10.13;2.33;;;;;;;;;;5052229;28;20055;-72
2022/01/10 03:04:47;;;;;;;10.57;2.03;;;;;;;;;;5052124;28;20041;-71
2022/01/10 03:07:18;;;;;;;10.32;2.20;;;;;;;;;;5050909;28;20501;-71
2022/01/10 03:09:45;;;;;;;9.35;2.20;;;;;;;;;;5052100;28;20335;-71
2022/01/10 03:12:13;;;;;;;10.00;2.90;;;;;;;;;;5051973;28;20037;-71
2022/01/10 03:14:40;;;;;;;10.93;2.25;;;;;;;;;;5053496;28;20100;-71
2022/01/10 03:17:08;;;;;;;9.07;2.20;;;;;;;;;;5055823;28;20021;-72
2022/01/10 03:19:36;;;;;;;10.23;1.90;;;;;;;;;;5055867;28;20028;-72
2022/01/10 03:22:03;;;;;;;10.73;2.33;;;;;;;;;;5054513;28;20036;-71
2022/01/10 03:24:30;;;;;;;8.45;3.22;;;;;;;;;;5054318;28;20029;-72
2022/01/10 03:26:58;;;;;;;10.63;2.33;;;;;;;;;;5054277;28;20025;-71
2022/01/10 03:29:25;;;;;;;12.25;2.70;;;;;;;;;;5055513;28;20132;-71
2022/01/10 03:31:52;;;;;;;9.73;2.40;;;;;;;;;;5055652;28;20033;-72
2022/01/10 03:34:19;;;;;;;13.57;2.72;;;;;;;;;;5055550;28;20021;-70
2022/01/10 03:36:46;;;;;;;14.50;2.67;;;;;;;;;;5055446;28;20409;-71
2022/01/10 03:39:14;;;;;;;8.40;1.60;;;;;;;;;;5055626;28;20028;-72
2022/01/10 03:41:42;;;;;;;7.75;2.10;;;;;;;;;;5055392;28;20382;-72
2022/01/10 03:44:09;;;;;;;11.57;2.47;;;;;;;;;;5055393;28;20489;-71
2022/01/10 03:46:36;;;;;;;10.20;2.10;;;;;;;;;;5055336;28;20017;-72
2022/01/10 03:49:05;;;;;;;10.60;2.38;;;;;;;;;;5054032;28;20079;-71
2022/01/10 03:51:32;;;;;;;11.40;2.38;;;;;;;;;;5053834;28;20025;-71
2022/01/10 03:54:01;;;;;;;9.02;2.22;;;;;;;;;;5055295;28;20021;-70
2022/01/10 03:56:29;;;;;;;14.45;2.38;;;;;;;;;;5053808;28;20025;-71
2022/01/10 03:58:56;;;;;;;11.88;1.98;;;;;;;;;;5055012;28;20079;-70
2022/01/10 04:01:24;;;;;;;7.15;1.85;;;;;;;;;;5053754;28;20029;-70
2022/01/10 04:03:52;;;;;;;9.98;2.25;;;;;;;;;;5054745;28;20060;-70
2022/01/10 04:06:19;;;;;;;11.25;2.33;;;;;;;;;;5054996;28;20037;-71
2022/01/10 04:08:46;;;;;;;10.82;2.10;;;;;;;;;;5054691;28;20021;-70
2022/01/10 04:11:14;;;;;;;14.48;2.58;;;;;;;;;;5054840;28;20427;-70
2022/01/10 04:13:41;;;;;;;8.35;2.35;;;;;;;;;;5054791;28;20056;-71
2022/01/10 04:16:08;;;;;;;13.80;2.35;;;;;;;;;;5054845;28;20367;-71
2022/01/10 04:18:35;;;;;;;12.05;2.20;;;;;;;;;;5053399;28;20029;-71
2022/01/10 04:21:03;;;;;;;12.52;2.38;;;;;;;;;;5054640;28;20021;-71
2022/01/10 04:23:30;;;;;;;9.20;2.50;;;;;;;;;;5053327;28;20116;-71
2022/01/10 04:25:57;;;;;;;8.68;2.38;;;;;;;;;;5054274;28;20017;-70
2022/01/10 04:28:25;;;;;;;12.05;1.95;;;;;;;;;;5054520;28;20021;-71
2022/01/10 04:30:52;;;;;;;10.27;2.30;;;;;;;;;;5054537;28;20465;-71
2022/01/10 04:33:20;;;;;;;11.02;2.08;;;;;;;;;;5053199;28;20436;-71
2022/01/10 04:35:49;;;;;;;8.63;2.03;;;;;;;;;;5054578;28;20075;-71
2022/01/10 04:38:16;;;;;;;8.23;1.75;;;;;;;;;;5054255;28;20020;-71
2022/01/10 04:40:43;;;;;;;8.57;1.95;;;;;;;;;;5054400;28;20324;-71
2022/01/10 04:43:10;;;;;;;10.52;2.50;;;;;;;;;;5052921;28;20043;-70
2022/01/10 04:45:37;;;;;;;12.73;2.25;;;;;;;;;;5054339;28;20433;-70
2022/01/10 04:48:05;;;;;;;10.85;2.85;;;;;;;;;;5054118;28;20028;-71
2022/01/10 04:53:01;;;;;;;;;;;;;;;;;;5054615;28;20025;-73
2022/01/10 04:55:29;;;;;;;9.60;2.03;;;;;;;;;;5052927;28;19905;-73
2022/01/10 04:57:56;;;;;;;11.35;2.25;;;;;;;;;;5054224;28;20378;-73
2022/01/10 05:00:25;;;;;;;12.05;2.53;;;;;;;;;;5052746;28;20028;-71
2022/01/10 05:02:52;;;;;;;11.85;2.40;;;;;;;;;;5052584;28;20025;-72
2022/01/10 05:05:19;;;;;;;10.95;2.65;;;;;;;;;;5053826;28;20025;-72
2022/01/10 05:07:47;;;;;;;10.82;2.30;;;;;;;;;;5053994;28;20025;-72
2022/01/10 05:10:14;;;;;;;12.38;2.50;;;;;;;;;;5053773;28;20509;-72
2022/01/10 05:12:41;;;;;;;8.02;1.95;;;;;;;;;;5052592;28;20029;-73
2022/01/10 05:15:09;;;;;;;11.07;2.22;;;;;;;;;;5053731;28;20029;-72
2022/01/10 05:17:36;;;;;;;8.48;1.83;;;;;;;;;;5053835;28;20025;-72
2022/01/10 05:20:04;;;;;;;10.40;2.13;;;;;;;;;;5053703;28;20029;-72
2022/01/10 05:22:31;;;;;;;13.50;2.25;;;;;;;;;;5053653;28;20429;-72
2022/01/10 05:24:58;;;;;;;13.82;2.45;;;;;;;;;;5052178;28;20029;-72
2022/01/10 05:27:25;;;;;;;11.38;2.65;;;;;;;;;;5053548;28;20544;-71
2022/01/10 05:29:52;;;;;;;9.50;2.13;;;;;;;;;;5053413;28;20028;-72
2022/01/10 05:32:20;;;;;;;14.55;2.55;;;;;;;;;;5053459;28;20040;-72
2022/01/10 05:34:47;;;;;;;9.55;2.40;;;;;;;;;;5053363;28;20025;-73
2022/01/10 05:37:14;;;;;;;9.07;2.10;;;;;;;;;;5052696;28;20032;-72
2022/01/10 05:39:41;;;;;;;13.05;2.55;;;;;;;;;;5053248;28;20478;-72
2022/01/10 05:42:08;;;;;;;9.65;2.28;;;;;;;;;;5053294;28;20024;-72
2022/01/10 05:44:35;;;;;;;10.38;2.25;;;;;;;;;;5051947;28;20116;-72
2022/01/10 05:47:03;;;;;;;12.18;2.53;;;;;;;;;;5051966;28;20075;-73
2022/01/10 05:49:34;;;;;;;9.85;1.92;;;;;;;;;;5051541;28;20032;-72
2022/01/10 05:52:02;;;;;;;12.55;2.63;;;;;;;;;;5051657;28;20113;-72
2022/01/10 05:54:29;;;;;;;12.50;2.60;;;;;;;;;;5051605;28;20486;-72
2022/01/10 05:56:56;;;;;;;10.95;1.90;;;;;;;;;;5052908;28;20478;-72
2022/01/10 05:59:24;;;;;;;10.75;2.13;;;;;;;;;;5052904;28;20363;-71
2022/01/10 06:01:51;;;;;;;10.57;2.45;;;;;;;;;;5051555;28;20021;-72
2022/01/10 06:04:18;;;;;;;10.63;2.72;;;;;;;;;;5052643;28;20075;-72
2022/01/10 06:06:45;;;;;;;9.70;2.50;;;;;;;;;;5051644;28;20029;-71
2022/01/10 06:09:12;;;;;;;13.90;3.25;;;;;;;;;;5052762;28;20074;-71
2022/01/10 06:11:40;;;;;;;13.15;3.00;;;;;;;;;;5052747;28;20543;-72
2022/01/10 06:14:07;;;;;;;10.93;2.10;;;;;;;;;;5052946;28;20017;-71
2022/01/10 06:16:37;;;;;;;12.63;2.20;;;;;;;;;;5051515;28;20108;-70
2022/01/10 06:19:04;;;;;;;12.50;2.30;;;;;;;;;;5051479;28;20114;-71
2022/01/10 06:21:32;;;;;;;9.80;2.67;;;;;;;;;;5052683;28;20032;-70
2022/01/10 06:23:59;;;;;;;9.25;2.22;;;;;;;;;;5052912;28;20056;-70
2022/01/10 06:26:26;;;;;;;10.93;2.60;;;;;;;;;;5052614;28;20020;-70
2022/01/10 06:28:53;;;;;;;11.43;2.58;;;;;;;;;;5052496;28;20017;-70
2022/01/10 06:31:20;;;;;;;11.63;2.47;;;;;;;;;;5052545;28;20023;-70
2022/01/10 06:33:47;;;;;;;10.88;2.45;;;;;;;;;;5052651;28;20056;-70
2022/01/10 06:36:14;;;;;;;11.32;2.40;;;;;;;;;;5052567;28;20089;-70
2022/01/10 06:38:42;;;;;;;12.27;2.60;;;;;;;;;;5052660;28;20021;-71
2022/01/10 06:41:09;;;;;;;15.02;2.92;;;;;;;;;;5051206;28;20083;-71
2022/01/10 06:43:37;;;;;;;9.20;2.20;;;;;;;;;;5052462;28;20029;-71
2022/01/10 06:46:05;;;;;;;10.43;2.45;;;;;;;;;;5052371;28;20339;-72
2022/01/10 06:48:32;;;;;;;9.02;2.08;;;;;;;;;;5053721;28;20039;-70
2022/01/10 06:50:59;;;;;;;10.18;2.40;;;;;;;;;;5056188;28;20052;-70
2022/01/10 06:53:27;;;;;;;9.30;2.53;;;;;;;;;;5056510;28;20543;-71
2022/01/10 06:55:54;;;;;;;10.02;2.05;;;;;;;;;;5054989;28;20108;-71
2022/01/10 06:58:21;;;;;;;12.52;2.40;;;;;;;;;;5056172;28;20024;-71
2022/01/10 07:00:49;;;;;;;8.07;1.73;;;;;;;;;;5056171;28;20394;-71
2022/01/10 07:03:16;;;;;;;12.20;2.63;;;;;;;;;;5054459;28;20060;-70
2022/01/10 07:05:43;;;;;;;8.30;2.05;;;;;;;;;;5056259;28;20024;-70
2022/01/10 07:08:10;;;;;;;9.90;2.10;;;;;;;;;;5056080;28;20395;-70
2022/01/10 07:10:37;;;;;;;13.13;2.42;;;;;;;;;;5056057;28;20021;-71
2022/01/10 07:13:04;;;;;;;11.00;2.67;;;;;;;;;;5055908;28;20017;-71
2022/01/10 07:15:35;;;;;;;14.40;2.58;;;;;;;;;;5055992;28;20053;-71
2022/01/10 07:18:02;;;;;;;13.50;2.60;;;;;;;;;;5037962;28;20107;-70
2022/01/10 07:20:31;;;;;;;11.63;2.78;;;;;;;;;;5055839;28;20041;-70
2022/01/10 07:22:58;;;;;;;11.50;2.58;;;;;;;;;;5055695;28;20048;-71
2022/01/10 07:25:25;;;;;;;10.20;2.08;;;;;;;;;;5054839;28;20025;-71
2022/01/10 07:27:52;;;;;;;10.32;2.67;;;;;;;;;;5055789;28;20473;-71
2022/01/10 07:30:20;;;;;;;12.18;2.78;;;;;;;;;;5055661;28;20029;-70
2022/01/10 07:32:47;;;;;;;9.07;2.35;;;;;;;;;;5055755;28;20474;-71
2022/01/10 07:35:14;;;;;;;11.07;2.30;;;;;;;;;;5055629;28;20021;-71
2022/01/10 07:37:41;;;;;;;9.75;2.00;;;;;;;;;;5054112;28;20104;-71
2022/01/10 07:40:08;;;;;;;13.93;2.47;;;;;;;;;;5055547;28;20393;-72
2022/01/10 07:42:36;;;;;;;13.77;2.70;;;;;;;;;;5055409;28;20075;-71
2022/01/10 07:45:04;;;;;;;9.88;2.10;;;;;;;;;;5055356;28;20024;-71
2022/01/10 07:47:32;;;;;;;16.73;3.03;;;;;;;;;;5055200;28;20504;-72
2022/01/10 07:49:59;;;;;;;10.02;2.47;;;;;;;;;;5054050;28;20602;-70
2022/01/10 07:52:26;;;;;;;12.52;2.55;;;;;;;;;;5055278;28;20017;-71
2022/01/10 07:54:54;;;;;;;16.40;3.28;;;;;;;;;;5055305;28;20485;-71
2022/01/10 07:57:21;;;;;;;10.68;2.20;;;;;;;;;;5054037;28;20040;-71
2022/01/10 07:59:48;;;;;;;12.43;2.67;;;;;;;;;;5054333;28;20037;-72
2022/01/10 08:02:16;;;;;;;13.25;2.78;;;;;;;;;;5055163;28;20036;-71
2022/01/10 08:04:43;;;;;;;11.40;2.97;;;;;;;;;;5054772;28;20049;-72
2022/01/10 08:07:11;;;;;;;12.55;3.38;;;;;;;;;;5054989;28;20027;-72
2022/01/10 08:09:38;;;;;;;11.73;2.97;;;;;;;;;;5053460;28;20493;-71
2022/01/10 08:12:05;;;;;;;18.73;3.25;;;;;;;;;;5055014;28;20386;-71
2022/01/10 08:14:33;;;;;;;14.40;3.42;;;;;;;;;;5054872;28;20025;-70
2022/01/10 08:17:00;;;;;;;12.82;3.45;;;;;;;;;;5054955;28;20083;-69
2022/01/10 08:19:30;;;;;;;15.57;3.33;;;;;;;;;;5054756;28;20083;-71
2022/01/10 08:21:57;;;;;;;15.30;3.17;;;;;;;;;;5053577;28;20025;-71
2022/01/10 08:24:25;;;;;;;19.05;3.42;;;;;;;;;;5054706;28;20021;-71
2022/01/10 08:26:53;;;;;;;17.15;3.00;;;;;;;;;;5054767;28;20021;-70
2022/01/10 08:29:20;;;;;;;14.25;3.08;;;;;;;;;;5054564;28;20025;-71
2022/01/10 08:31:47;;;;;;;15.52;3.53;;;;;;;;;;5054596;28;20048;-73
2022/01/10 08:34:15;;;;;;;16.60;2.88;;;;;;;;;;5054457;28;20021;-71
2022/01/10 08:36:42;;;;;;;15.23;3.13;;;;;;;;;;5053238;28;20025;-71
2022/01/10 08:39:09;;;;;;;13.43;3.25;;;;;;;;;;5054520;28;20025;-72
2022/01/10 08:41:37;;;;;;;17.42;4.05;;;;;;;;;;5054549;28;20501;-72
2022/01/10 08:44:05;;;;;;;16.10;3.40;;;;;;;;;;5054315;28;20110;-72
2022/01/10 08:46:32;;;;;;;13.88;3.50;;;;;;;;;;5053036;28;20025;-73
2022/01/10 08:48:59;;;;;;;14.45;3.45;;;;;;;;;;5054318;28;20029;-71
2022/01/10 08:51:29;;;;;;;16.05;3.05;;;;;;;;;;5054307;28;20390;-71
2022/01/10 08:53:56;;;;;;;16.23;4.15;;;;;;;;;;5052911;28;20059;-72
2022/01/10 08:56:23;;;;;;;18.33;3.63;;;;;;;;;;5054150;28;20086;-72
2022/01/10 08:58:50;;;;;;;18.85;3.58;;;;;;;;;;5052882;28;20436;-72
2022/01/10 09:01:19;;;;;;;17.52;4.07;;;;;;;;;;5053923;28;20028;-72
2022/01/10 09:03:46;;;;;;;22.55;4.15;;;;;;;;;;5053783;28;20049;-73
2022/01/10 09:06:13;;;;;;;16.40;4.35;;;;;;;;;;5052616;28;20029;-73
2022/01/10 09:08:41;;;;;;;20.25;3.55;;;;;;;;;;5053982;28;20371;-71
2022/01/10 09:11:09;;;;;;;17.60;3.72;;;;;;;;;;5053287;28;20075;-72
2022/01/10 09:13:36;;;;;;;17.08;3.60;;;;;;;;;;5051960;28;20032;-71
2022/01/10 09:16:03;;;;;;;19.27;4.60;;;;;;;;;;5053696;28;20021;-71
2022/01/10 09:18:30;;;;;;;21.08;4.68;;;;;;;;;;5053723;28;20028;-70
2022/01/10 09:20:58;;;;;;;17.05;3.33;;;;;;;;;;5053608;28;20094;-71
2022/01/10 09:23:26;;;;;;;21.65;4.00;;;;;;;;;;5053688;28;20082;-72
2022/01/10 09:25:53;;;;;;;19.75;4.43;;;;;;;;;;5052078;28;20101;-72
2022/01/10 09:28:20;;;;;;;22.85;4.50;;;;;;;;;;5053431;28;20029;-72
2022/01/10 09:30:49;;;;;;;19.33;4.28;;;;;;;;;;5053293;28;20075;-72
2022/01/10 09:33:16;;;;;;;24.70;4.82;;;;;;;;;;5053518;28;20466;-72
2022/01/10 09:35:43;;;;;;;14.63;3.40;;;;;;;;;;5053356;28;20021;-71
2022/01/10 09:38:11;;;;;;;17.90;4.25;;;;;;;;;;5053383;28;20021;-71
2022/01/10 09:40:38;;;;;;;20.65;4.43;;;;;;;;;;5053358;28;20075;-71
2022/01/10 09:43:06;;;;;;;12.50;3.80;;;;;;;;;;5051988;28;20029;-70
2022/01/10 09:45:34;;;;;;;17.98;4.75;;;;;;;;;;5051921;28;20037;-71
2022/01/10 09:48:01;;;;;;;16.17;3.90;;;;;;;;;;5053139;28;20025;-72
2022/01/10 09:50:29;;;;;;;17.60;4.30;;;;;;;;;;5052062;28;20078;-71
2022/01/10 09:52:56;;;;;;;17.63;4.18;;;;;;;;;;5053083;28;20036;-71
2022/01/10 09:55:25;;;;;;;18.40;4.28;;;;;;;;;;5053100;28;20021;-71
2022/01/10 09:57:52;;;;;;;15.02;3.85;;;;;;;;;;5051733;28;20078;-71
2022/01/10 10:00:20;;;;;;;22.73;4.45;;;;;;;;;;5052930;28;20032;-71
2022/01/10 10:02:49;;;;;;;14.88;3.63;;;;;;;;;;5052863;28;20509;-71
2022/01/10 10:05:17;;;;;;;16.83;4.63;;;;;;;;;;5051675;28;20036;-71
2022/01/10 10:07:45;;;;;;;15.48;3.97;;;;;;;;;;5052968;28;20449;-71
2022/01/10 10:10:13;;;;;;;19.17;4.10;;;;;;;;;;5052916;28;20473;-72
2022/01/10 10:12:45;;;;;;;19.23;4.78;;;;;;;;;;5052860;28;20366;-71
2022/01/10 10:15:15;;;;;;;23.15;4.65;;;;;;;;;;5052857;28;20028;-71
2022/01/10 10:17:42;;;;;;;17.30;4.47;;;;;;;;;;5051638;28;20371;-71
2022/01/10 10:20:15;;;;;;;17.63;4.63;;;;;;;;;;5052965;28;20036;-72
2022/01/10 10:22:43;;;;;;;18.90;4.72;;;;;;;;;;5051232;28;20037;-71
2022/01/10 10:25:12;;;;;;;17.90;5.05;;;;;;;;;;5052714;28;20074;-71
2022/01/10 10:27:40;;;;;;;17.10;4.68;;;;;;;;;;5052703;28;20051;-71
2022/01/10 10:30:10;;;;;;;23.02;4.78;;;;;;;;;;5052654;28;20025;-71
2022/01/10 10:32:37;;;;;;;23.27;4.72;;;;;;;;;;5051371;28;20021;-70
2022/01/10 10:35:05;;;;;;;20.75;5.30;;;;;;;;;;5051435;28;20056;-71
2022/01/10 10:37:36;;;;;;;16.35;4.10;;;;;;;;;;5052645;28;20039;-71
2022/01/10 10:40:03;;;;;;;;;;;;;;;;;;5053166;28;20096;-72
2022/01/10 10:42:30;;;;;;;22.60;4.97;;;;;;;;;;5051337;28;19912;-72
2022/01/10 10:44:57;;;;;;;14.07;4.65;;;;;;;;;;5051351;28;20048;-72
2022/01/10 10:47:27;;;;;;;21.60;4.85;;;;;;;;;;5051314;28;20033;-72
2022/01/10 10:49:59;;;;;;;26.38;6.45;;;;;;;;;;5052574;28;20506;-72
2022/01/10 10:52:31;;;;;;;20.60;4.85;;;;;;;;;;5051204;28;20133;-72
2022/01/10 10:55:02;;;;;;;17.25;4.72;;;;;;;;;;5052626;28;20021;-72
2022/01/10 10:57:30;;;;;;;19.08;4.95;;;;;;;;;;5052592;28;20494;-72
2022/01/10 10:59:58;;;;;;;21.60;5.28;;;;;;;;;;5051189;28;20064;-73
2022/01/10 11:02:25;;;;;;;22.02;5.15;;;;;;;;;;5052382;28;20021;-73
2022/01/10 11:04:53;;;;;;;24.02;5.28;;;;;;;;;;5050913;28;20045;-73
2022/01/10 11:07:27;;;;;;;20.70;5.28;;;;;;;;;;5051128;28;20025;-72
2022/01/10 11:09:54;;;;;;;18.88;4.97;;;;;;;;;;5051130;28;20402;-72
2022/01/10 11:12:25;;;;;;;20.67;4.82;;;;;;;;;;5051012;28;20438;-73
2022/01/10 11:14:59;;;;;;;19.30;5.20;;;;;;;;;;5052370;28;20076;-72
2022/01/10 11:17:26;;;;;;;17.77;4.57;;;;;;;;;;5051166;28;20108;-73
2022/01/10 11:20:10;;;;;;;16.73;4.57;;;;;;;;;;5050994;28;20375;-73
2022/01/10 11:22:39;;;;;;;22.77;5.75;;;;;;;;;;5052151;28;20029;-72
2022/01/10 11:25:19;;;;;;;22.27;4.55;;;;;;;;;;5052182;28;20082;-72
2022/01/10 11:27:46;;;;;;;;;;;;;;;;;;5051300;28;20029;-72
2022/01/10 11:30:33;;;;;;;25.27;4.90;;;;;;;;;;5052213;28;19909;-72
2022/01/10 11:33:04;;;;;;;16.50;4.15;;;;;;;;;;5052236;28;20047;-72
2022/01/10 11:35:33;;;;;;;18.08;4.70;;;;;;;;;;5051988;28;20029;-72
2022/01/10 11:38:00;;;;;;;23.05;5.28;;;;;;;;;;5055772;28;20029;-72
2022/01/10 11:40:28;;;;;;;21.25;5.30;;;;;;;;;;5055588;28;20080;-72
2022/01/10 11:42:56;;;;;;;19.58;4.85;;;;;;;;;;5055608;28;20025;-72
2022/01/10 11:45:25;;;;;;;20.05;4.80;;;;;;;;;;5055523;28;20021;-71
2022/01/10 11:48:00;;;;;;;20.23;4.38;;;;;;;;;;5055640;28;20025;-71
2022/01/10 11:50:28;;;;;;;24.00;5.10;;;;;;;;;;5054438;28;20032;-71
2022/01/10 11:52:56;;;;;;;23.83;5.20;;;;;;;;;;5055380;28;20045;-72
2022/01/10 11:55:41;;;;;;;19.38;4.93;;;;;;;;;;5054136;28;20036;-71
2022/01/10 11:58:34;;;;;;;15.50;4.65;;;;;;;;;;5055386;28;20232;-71
2022/01/10 12:01:08;;;;;;;18.02;5.45;;;;;;;;;;5052974;28;20061;-71
2022/01/10 12:03:35;;;;;;;20.75;4.63;;;;;;;;;;5053683;28;20494;-72
2022/01/10 12:06:02;;;;;;;24.15;4.43;;;;;;;;;;5053999;28;20505;-72
2022/01/10 12:08:29;;;;;;;15.93;4.82;;;;;;;;;;5053842;28;20067;-71
2022/01/10 12:10:57;;;;;;;20.58;5.45;;;;;;;;;;5053715;28;20398;-72
2022/01/10 12:13:28;;;;;;;23.48;4.80;;;;;;;;;;5055198;28;20028;-71
2022/01/10 12:15:59;;;;;;;22.13;5.15;;;;;;;;;;5055184;28;20504;-74
2022/01/10 12:18:25;;;;;;;;;;;;;;;;;;5054098;28;20025;-71
2022/01/10 12:20:53;;;;;;;17.17;4.55;;;;;;;;;;5055052;28;19904;-71
2022/01/10 12:23:21;;;;;;;18.02;5.40;;;;;;;;;;5054911;28;20417;-71
2022/01/10 12:25:48;;;;;;;21.63;5.50;;;;;;;;;;5054843;28;20546;-71
2022/01/10 12:28:16;;;;;;;18.02;4.25;;;;;;;;;;5054824;28;20028;-72
2022/01/10 12:30:44;;;;;;;16.08;4.20;;;;;;;;;;5054718;28;20057;-71
2022/01/10 12:33:11;;;;;;;17.70;5.10;;;;;;;;;;5054678;28;20021;-72
2022/01/10 12:35:38;;;;;;;21.48;4.53;;;;;;;;;;5054608;28;20071;-72
2022/01/10 12:38:06;;;;;;;23.25;4.90;;;;;;;;;;5053307;28;20029;-71
2022/01/10 12:40:33;;;;;;;18.55;4.50;;;;;;;;;;5054558;28;20103;-71
2022/01/10 12:43:01;;;;;;;20.05;4.63;;;;;;;;;;5054561;28;20108;-72
2022/01/10 12:45:38;;;;;;;19.08;5.13;;;;;;;;;;5053092;28;20064;-72
2022/01/10 12:48:05;;;;;;;19.67;4.70;;;;;;;;;;5054267;28;20021;-72
2022/01/10 12:50:33;;;;;;;17.27;4.80;;;;;;;;;;5052922;28;20029;-72
2022/01/10 12:53:00;;;;;;;19.52;4.47;;;;;;;;;;5054288;28;20024;-72
2022/01/10 12:55:27;;;;;;;20.35;4.80;;;;;;;;;;5054243;28;20017;-71
2022/01/10 12:57:55;;;;;;;22.63;4.82;;;;;;;;;;5054212;28;20021;-71
2022/01/10 13:00:22;;;;;;;21.55;4.65;;;;;;;;;;5052809;28;20021;-71
2022/01/10 13:02:49;;;;;;;15.70;3.95;;;;;;;;;;5053861;28;20025;-72
2022/01/10 13:05:18;;;;;;;12.63;3.88;;;;;;;;;;5052816;28;20071;-72
2022/01/10 13:07:46;;;;;;;21.95;5.15;;;;;;;;;;5054015;28;20044;-72
2022/01/10 13:10:29;;;;;;;22.27;4.93;;;;;;;;;;5053857;28;20029;-72
2022/01/10 13:12:57;;;;;;;16.73;3.70;;;;;;;;;;5053997;28;20108;-72
2022/01/10 13:15:32;;;;;;;18.08;4.45;;;;;;;;;;5053973;28;20100;-72
2022/01/10 13:18:00;;;;;;;20.52;4.70;;;;;;;;;;5052671;28;20367;-72
2022/01/10 13:20:29;;;;;;;18.98;4.72;;;;;;;;;;5052455;28;20397;-72
2022/01/10 13:23:09;;;;;;;22.40;4.60;;;;;;;;;;5053774;28;20049;-72
2022/01/10 13:25:37;;;;;;;;;;;;;;;;;;5054123;28;20398;-71
2022/01/10 13:28:07;;;;;;;18.60;4.63;;;;;;;;;;5053757;28;20258;-70
2022/01/10 13:30:35;;;;;;;21.90;5.15;;;;;;;;;;5053655;28;20379;-71
2022/01/10 13:33:09;;;;;;;18.27;4.70;;;;;;;;;;5053574;28;20017;-72
2022/01/10 13:35:37;;;;;;;20.45;5.38;;;;;;;;;;5053692;28;20071;-72
2022/01/10 13:38:06;;;;;;;15.23;4.18;;;;;;;;;;5053440;28;20497;-71
2022/01/10 13:40:40;;;;;;;15.80;4.10;;;;;;;;;;5052116;28;20036;-72
2022/01/10 13:43:09;;;;;;;19.75;4.60;;;;;;;;;;5052217;28;20033;-72
2022/01/10 13:45:53;;;;;;;21.73;4.70;;;;;;;;;;5053409;28;20044;-72
2022/01/10 13:48:25;;;;;;;20.20;4.30;;;;;;;;;;5053281;28;20025;-71
2022/01/10 13:51:02;;;;;;;17.98;4.55;;;;;;;;;;5051862;28;20021;-71
2022/01/10 13:53:44;;;;;;;23.85;4.75;;;;;;;;;;5051918;28;20029;-71
2022/01/10 13:56:12;;;;;;;16.88;4.35;;;;;;;;;;5053304;28;20481;-71
2022/01/10 13:58:43;;;;;;;18.52;5.07;;;;;;;;;;5052503;28;20025;-72
2022/01/10 14:01:11;;;;;;;21.63;5.10;;;;;;;;;;5053100;28;20112;-72
2022/01/10 14:03:39;;;;;;;18.83;5.65;;;;;;;;;;5052882;28;20505;-72
2022/01/10 14:06:06;;;;;;;18.70;4.90;;;;;;;;;;5053100;28;20116;-71
2022/01/10 14:08:34;;;;;;;19.98;4.60;;;;;;;;;;5053078;28;20096;-72
2022/01/10 14:11:04;;;;;;;17.52;5.00;;;;;;;;;;5052885;28;20051;-72
2022/01/10 14:13:31;;;;;;;15.50;4.90;;;;;;;;;;5052976;28;20017;-72
2022/01/10 14:15:58;;;;;;;19.35;5.05;;;;;;;;;;5051617;28;20021;-72
2022/01/10 14:18:26;;;;;;;20.67;5.00;;;;;;;;;;5051573;28;20078;-72
2022/01/10 14:20:53;;;;;;;21.67;5.53;;;;;;;;;;5052796;28;20105;-72
2022/01/10 14:23:20;;;;;;;18.77;5.20;;;;;;;;;;5052966;28;20385;-71
2022/01/10 14:25:47;;;;;;;16.88;4.90;;;;;;;;;;5051670;28;20029;-72
2022/01/10 14:28:15;;;;;;;22.40;5.03;;;;;;;;;;5052753;28;20155;-72
2022/01/10 14:30:44;;;;;;;16.45;5.28;;;;;;;;;;5051439;28;20025;-73
2022/01/10 14:33:12;;;;;;;19.23;5.03;;;;;;;;;;5052860;28;20018;-72
2022/01/10 14:35:39;;;;;;;19.05;5.20;;;;;;;;;;5051542;28;20255;-71
2022/01/10 14:38:07;;;;;;;17.48;4.85;;;;;;;;;;5051455;28;20017;-72
2022/01/10 14:40:34;;;;;;;24.35;4.85;;;;;;;;;;5051429;28;20029;-72
2022/01/10 14:43:01;;;;;;;20.98;5.38;;;;;;;;;;5052789;28;20028;-72
2022/01/10 14:45:28;;;;;;;20.13;4.90;;;;;;;;;;5052654;28;20478;-72
2022/01/10 14:47:55;;;;;;;18.52;4.90;;;;;;;;;;5052665;28;20436;-72
2022/01/10 14:50:23;;;;;;;21.80;4.10;;;;;;;;;;5052561;28;20028;-72
2022/01/10 14:52:50;;;;;;;22.02;5.07;;;;;;;;;;5052648;28;20033;-71